createdAt,value
2022-08-12T00:02:05.065Z,15.91
2022-08-12T00:04:51.785Z,15.95
2022-08-12T00:07:37.117Z,15.92
2022-08-12T00:10:22.475Z,15.74
2022-08-12T00:13:07.941Z,15.64
2022-08-12T00:15:54.722Z,15.77
2022-08-12T00:18:39.797Z,15.65
2022-08-12T00:21:25.101Z,15.66
2022-08-12T00:24:12.827Z,15.54
2022-08-12T00:27:00.053Z,15.40
2022-08-12T00:29:48.169Z,15.35
2022-08-12T00:32:35.747Z,15.32
2022-08-12T00:35:39.526Z,15.26
2022-08-12T00:38:25.955Z,15.43
2022-08-12T00:41:12.793Z,15.33
2022-08-12T00:43:43.247Z,15.21
2022-08-12T00:46:28.818Z,15.21
2022-08-12T00:48:57.125Z,15.34
2022-08-12T00:51:44.837Z,15.37
2022-08-12T00:54:11.396Z,15.17
2022-08-12T00:56:40.085Z,15.19
2022-08-12T00:59:08.164Z,15.26
2022-08-12T01:02:04.261Z,15.14
2022-08-12T01:04:44.695Z,15.21
2022-08-12T01:07:32.429Z,15.09
2022-08-12T01:10:18.707Z,15.07
2022-08-12T01:13:07.434Z,15.27
2022-08-12T01:15:50.081Z,15.08
2022-08-12T01:18:19.193Z,14.91
2022-08-12T01:20:51.749Z,14.96
2022-08-12T01:23:55.951Z,15.09
2022-08-12T01:26:24.688Z,14.87
2022-08-12T01:28:57.055Z,15.05
2022-08-12T01:31:26.820Z,14.90
2022-08-12T01:34:04.842Z,14.64
2022-08-12T01:36:57.652Z,14.62
2022-08-12T01:39:31.929Z,14.53
2022-08-12T01:42:10.602Z,14.64
2022-08-12T01:44:38.817Z,14.40
2022-08-12T01:47:33.261Z,14.40
2022-08-12T01:50:17.827Z,14.15
2022-08-12T01:53:05.705Z,14.20
2022-08-12T01:55:35.226Z,14.14
2022-08-12T01:58:20.324Z,14.22
2022-08-12T02:01:03.767Z,13.95
2022-08-12T02:04:11.187Z,13.90
2022-08-12T02:07:15.772Z,13.74
2022-08-12T02:10:49.869Z,13.75
2022-08-12T02:13:57.145Z,13.70
2022-08-12T02:16:47.309Z,13.70
2022-08-12T02:19:49.621Z,13.54
2022-08-12T02:22:28.362Z,13.47
2022-08-12T02:25:08.969Z,13.51
2022-08-12T02:27:43.157Z,13.42
2022-08-12T02:30:12.954Z,13.41
2022-08-12T02:32:44.168Z,13.48
2022-08-12T02:35:22.664Z,13.38
2022-08-12T02:37:53.385Z,13.44
2022-08-12T02:40:20.598Z,13.24
2022-08-12T02:42:55.661Z,13.33
2022-08-12T02:45:33.485Z,13.59
2022-08-12T02:48:06.526Z,13.45
2022-08-12T02:50:36.602Z,13.35
2022-08-12T02:53:04.673Z,13.37
2022-08-12T02:55:36.095Z,13.49
2022-08-12T02:58:09.205Z,13.41
2022-08-12T03:00:40.581Z,13.34
2022-08-12T03:03:10.611Z,13.12
2022-08-12T03:06:01.631Z,13.05
2022-08-12T03:08:36.500Z,12.87
2022-08-12T03:11:12.205Z,12.89
2022-08-12T03:13:46.149Z,12.69
2022-08-12T03:16:14.549Z,12.92
2022-08-12T03:18:46.039Z,12.97
2022-08-12T03:21:16.702Z,12.98
2022-08-12T03:23:46.157Z,13.17
2022-08-12T03:26:14.726Z,13.05
2022-08-12T03:28:51.949Z,12.96
2022-08-12T03:31:22.103Z,13.08
2022-08-12T03:34:00.865Z,13.04
2022-08-12T03:36:35.019Z,13.18
2022-08-12T03:39:16.695Z,13.13
2022-08-12T03:42:10.471Z,13.30
2022-08-12T03:45:15.940Z,13.42
2022-08-12T03:48:04.006Z,13.57
2022-08-12T03:50:49.955Z,13.25
2022-08-12T03:53:43.598Z,13.23
2022-08-12T03:56:28.976Z,13.11
2022-08-12T03:59:16.774Z,13.00
2022-08-12T04:01:43.788Z,12.90
2022-08-12T04:04:10.716Z,12.94
2022-08-12T04:06:42.777Z,12.79
2022-08-12T04:09:16.353Z,12.84
2022-08-12T04:12:03.754Z,12.64
2022-08-12T04:14:31.852Z,12.68
2022-08-12T04:16:58.839Z,12.51
2022-08-12T04:19:26.333Z,12.56
2022-08-12T04:22:02.125Z,12.55
2022-08-12T04:24:34.985Z,12.65
2022-08-12T04:27:05.499Z,12.60
2022-08-12T04:30:16.475Z,12.72
2022-08-12T04:32:18.684Z,12.87
2022-08-12T04:34:45.748Z,12.85
2022-08-12T04:37:13.013Z,12.97
2022-08-12T04:39:40.736Z,13.24
2022-08-12T04:42:07.398Z,13.37
2022-08-12T04:44:33.850Z,13.51
2022-08-12T04:47:00.660Z,13.57
2022-08-12T04:49:28.066Z,13.72
2022-08-12T04:51:58.975Z,13.75
2022-08-12T04:54:27.130Z,13.89
2022-08-12T04:57:04.386Z,14.02
2022-08-12T04:59:48.422Z,14.15
2022-08-12T05:02:20.950Z,14.45
2022-08-12T05:04:49.974Z,14.56
2022-08-12T05:07:16.611Z,14.59
2022-08-12T05:09:58.829Z,14.67
2022-08-12T05:12:34.096Z,14.73
2022-08-12T05:15:00.685Z,14.79
2022-08-12T05:17:28.289Z,14.86
2022-08-12T05:19:57.093Z,-99.46
2022-08-12T05:22:25.670Z,14.97
2022-08-12T05:24:52.691Z,15.12
2022-08-12T05:27:19.156Z,15.20
2022-08-12T05:30:06.437Z,15.34
2022-08-12T05:32:35.634Z,15.42
2022-08-12T05:35:06.768Z,15.52
2022-08-12T05:37:35.020Z,15.58
2022-08-12T05:40:09.903Z,15.62
2022-08-12T05:42:37.295Z,15.85
2022-08-12T05:45:04.257Z,15.91
2022-08-12T05:47:40.688Z,16.12
2022-08-12T05:50:17.353Z,16.18
2022-08-12T05:52:44.100Z,16.36
2022-08-12T05:55:11.705Z,16.51
2022-08-12T05:57:39.218Z,16.68
2022-08-12T06:00:06.880Z,16.68
2022-08-12T06:02:34.997Z,16.81
2022-08-12T06:05:02.382Z,17.05
2022-08-12T06:07:59.175Z,17.09
2022-08-12T06:10:32.255Z,17.39
2022-08-12T06:13:04.338Z,17.43
2022-08-12T06:15:33.100Z,17.55
2022-08-12T06:18:13.627Z,17.60
2022-08-12T06:20:46.533Z,17.78
2022-08-12T06:23:15.324Z,17.83
2022-08-12T06:25:43.560Z,17.95
2022-08-12T06:28:19.512Z,18.05
2022-08-12T06:30:53.080Z,18.27
2022-08-12T06:33:57.677Z,18.33
2022-08-12T06:36:21.157Z,18.40
2022-08-12T06:38:48.795Z,18.65
2022-08-12T06:41:34.701Z,18.71
2022-08-12T06:44:06.574Z,18.87
2022-08-12T06:46:36.836Z,18.98
2022-08-12T06:49:03.896Z,19.17
2022-08-12T06:51:32.338Z,19.36
2022-08-12T06:54:00.528Z,19.51
2022-08-12T06:56:45.968Z,19.66
2022-08-12T06:59:15.610Z,19.94
2022-08-12T07:01:51.086Z,20.10
2022-08-12T07:07:10.448Z,19.97
2022-08-12T07:10:01.284Z,19.83
2022-08-12T07:12:28.159Z,19.88
2022-08-12T07:14:55.917Z,19.85
2022-08-12T07:17:22.447Z,20.01
2022-08-12T07:19:50.073Z,20.01
2022-08-12T07:22:16.729Z,20.06
2022-08-12T07:24:43.843Z,20.14
2022-08-12T07:27:10.317Z,20.32
2022-08-12T07:30:03.515Z,20.57
2022-08-12T07:32:28.207Z,20.59
2022-08-12T07:34:56.263Z,20.70
2022-08-12T07:37:23.570Z,20.86
2022-08-12T07:40:00.051Z,20.77
2022-08-12T07:42:28.402Z,20.84
2022-08-12T07:44:55.997Z,21.02
2022-08-12T07:47:23.023Z,21.29
2022-08-12T07:50:05.404Z,21.56
2022-08-12T07:52:35.484Z,21.78
2022-08-12T07:55:03.530Z,22.03
2022-08-12T07:57:32.577Z,22.11
2022-08-12T08:00:05.074Z,22.51
2022-08-12T08:02:33.572Z,22.73
2022-08-12T08:05:00.710Z,22.85
2022-08-12T08:07:30.702Z,23.05
2022-08-12T08:09:59.430Z,23.24
2022-08-12T08:12:46.806Z,23.34
2022-08-12T08:15:15.047Z,23.64
2022-08-12T08:18:02.668Z,23.99
2022-08-12T08:20:35.800Z,24.28
2022-08-12T08:23:06.240Z,24.85
2022-08-12T08:25:36.713Z,25.86
2022-08-12T08:28:09.124Z,26.75
2022-08-12T08:30:38.995Z,27.36
2022-08-12T08:33:24.547Z,28.02
2022-08-12T08:35:55.883Z,27.82
2022-08-12T08:38:33.049Z,29.23
2022-08-12T08:42:14.154Z,28.87
2022-08-12T08:44:10.799Z,29.33
2022-08-12T08:46:38.384Z,29.71
2022-08-12T08:49:05.947Z,30.11
2022-08-12T08:51:32.671Z,29.59
2022-08-12T08:53:59.116Z,30.39
2022-08-12T08:56:27.135Z,30.38
2022-08-12T08:58:53.703Z,30.00
2022-08-12T09:01:21.569Z,30.49
2022-08-12T09:05:13.104Z,30.85
2022-08-12T09:06:37.457Z,31.29
2022-08-12T09:09:13.335Z,31.23
2022-08-12T09:14:58.380Z,30.23
2022-08-12T09:17:26.100Z,29.58
2022-08-12T09:20:10.886Z,29.95
2022-08-12T09:22:43.008Z,29.83
2022-08-12T09:25:25.606Z,31.09
2022-08-12T09:27:58.031Z,31.11
2022-08-12T09:30:48.331Z,30.75
2022-08-12T09:33:19.086Z,31.90
2022-08-12T09:36:05.509Z,33.03
2022-08-12T09:38:35.338Z,33.03
2022-08-12T09:42:34.386Z,32.51
2022-08-12T09:44:38.316Z,33.23
2022-08-12T09:46:56.213Z,32.72
2022-08-12T09:49:25.073Z,31.59
2022-08-12T09:51:54.286Z,31.09
2022-08-12T09:54:33.359Z,31.63
2022-08-12T09:58:46.969Z,32.13
2022-08-12T10:00:15.482Z,31.96
2022-08-12T10:03:06.633Z,31.85
2022-08-12T10:06:26.368Z,33.00
2022-08-12T10:08:27.460Z,33.40
2022-08-12T10:11:19.932Z,33.12
2022-08-12T10:13:50.144Z,32.85
2022-08-12T10:16:23.051Z,33.52
2022-08-12T10:18:56.125Z,33.14
2022-08-12T10:21:35.802Z,33.22
2022-08-12T10:24:14.318Z,34.21
2022-08-12T10:27:06.226Z,33.96
2022-08-12T10:30:03.195Z,33.07
2022-08-12T10:32:45.021Z,33.39
2022-08-12T10:35:14.317Z,33.32
2022-08-12T10:38:38.983Z,33.44
2022-08-12T10:40:33.134Z,32.78
2022-08-12T10:43:19.542Z,31.30
2022-08-12T10:45:49.024Z,30.10
2022-08-12T10:48:21.905Z,30.63
2022-08-12T10:51:52.050Z,32.42
2022-08-12T10:53:52.696Z,32.64
2022-08-12T10:56:19.546Z,31.62
2022-08-12T10:58:48.757Z,30.74
2022-08-12T11:01:49.096Z,30.26
2022-08-12T11:04:28.471Z,29.76
2022-08-12T11:07:09.589Z,30.06
2022-08-12T11:09:56.097Z,28.78
2022-08-12T11:12:55.163Z,28.40
2022-08-12T11:15:20.599Z,28.39
2022-08-12T11:17:53.938Z,28.18
2022-08-12T11:20:30.981Z,28.44
2022-08-12T11:23:25.487Z,30.56
2022-08-12T11:25:57.926Z,30.80
2022-08-12T11:28:33.747Z,32.12
2022-08-12T11:31:03.001Z,33.13
2022-08-12T11:34:04.728Z,34.40
2022-08-12T11:36:17.207Z,32.78
2022-08-12T11:38:50.801Z,32.84
2022-08-12T11:41:28.000Z,31.69
2022-08-12T11:43:59.094Z,31.99
2022-08-12T11:46:25.954Z,32.41
2022-08-12T11:48:52.862Z,32.18
2022-08-12T11:51:20.783Z,33.12
2022-08-12T11:53:57.475Z,34.62
2022-08-12T11:56:38.860Z,34.96
2022-08-12T12:02:02.332Z,31.60
2022-08-12T12:04:32.142Z,32.49
2022-08-12T12:07:07.096Z,32.47
2022-08-12T12:09:53.196Z,31.06
2022-08-12T12:12:22.481Z,29.38
2022-08-12T12:14:54.521Z,29.16
2022-08-12T12:17:22.186Z,31.68
2022-08-12T12:19:49.017Z,32.94
2022-08-12T12:22:15.902Z,33.90
2022-08-12T12:24:51.067Z,34.78
2022-08-12T12:28:03.762Z,34.14
2022-08-12T12:30:19.355Z,33.44
2022-08-12T12:32:54.375Z,32.24
2022-08-12T12:36:18.721Z,32.57
2022-08-12T12:38:12.006Z,33.66
2022-08-12T12:40:41.549Z,34.93
2022-08-12T12:43:10.924Z,35.36
2022-08-12T12:45:44.583Z,35.31
2022-08-12T12:48:17.795Z,35.73
2022-08-12T12:50:51.259Z,35.82
2022-08-12T12:54:05.742Z,35.62
2022-08-12T12:56:15.488Z,35.49
2022-08-12T12:58:43.622Z,36.61
2022-08-12T13:01:25.401Z,36.36
2022-08-12T13:03:56.512Z,35.69
2022-08-12T13:06:32.030Z,34.52
2022-08-12T13:09:02.515Z,33.23
2022-08-12T13:11:41.390Z,32.08
2022-08-12T13:14:13.067Z,33.27
2022-08-12T13:16:55.278Z,34.67
2022-08-12T13:19:36.647Z,34.24
2022-08-12T13:22:20.467Z,34.80
2022-08-12T13:24:52.215Z,35.46
2022-08-12T13:27:23.406Z,35.47
2022-08-12T13:29:59.815Z,34.98
2022-08-12T13:32:41.218Z,35.44
2022-08-12T13:35:20.172Z,35.01
2022-08-12T13:37:57.913Z,34.58
2022-08-12T13:40:34.370Z,33.11
2022-08-12T13:43:02.328Z,33.65
2022-08-12T13:45:33.094Z,34.70
2022-08-12T13:48:05.189Z,34.50
2022-08-12T13:50:36.607Z,34.86
2022-08-12T13:53:23.131Z,35.49
2022-08-12T13:56:01.482Z,35.61
2022-08-12T13:58:28.772Z,35.50
2022-08-12T14:00:58.266Z,35.30
2022-08-12T14:03:28.353Z,35.26
2022-08-12T14:06:15.432Z,35.48
2022-08-12T14:08:43.385Z,34.13
2022-08-12T14:11:12.485Z,33.41
2022-08-12T14:14:03.109Z,32.78
2022-08-12T14:16:46.986Z,32.26
2022-08-12T14:19:22.049Z,32.39
2022-08-12T14:22:00.725Z,31.57
2022-08-12T14:24:35.536Z,31.31
2022-08-12T14:27:09.355Z,30.69
2022-08-12T14:30:03.982Z,30.58
2022-08-12T14:32:25.399Z,30.01
2022-08-12T14:34:52.991Z,29.19
2022-08-12T14:37:54.935Z,29.01
2022-08-12T14:40:11.839Z,29.13
2022-08-12T14:42:46.782Z,28.93
2022-08-12T14:45:13.998Z,28.50
2022-08-12T14:47:49.973Z,28.71
2022-08-12T14:50:37.754Z,28.75
2022-08-12T14:59:20.439Z,28.49
2022-08-12T15:01:49.149Z,28.32
2022-08-12T15:04:18.570Z,28.28
2022-08-12T15:06:52.482Z,28.12
2022-08-12T15:09:19.592Z,28.16
2022-08-12T15:12:03.395Z,28.15
2022-08-12T15:14:31.746Z,28.14
2022-08-12T15:17:00.023Z,28.06
2022-08-12T15:20:22.361Z,28.04
2022-08-12T15:22:36.907Z,27.86
2022-08-12T15:25:03.786Z,27.81
2022-08-12T15:28:05.564Z,27.80
2022-08-12T15:30:22.860Z,27.39
2022-08-12T15:32:50.720Z,27.27
2022-08-12T15:35:17.643Z,27.11
2022-08-12T15:38:10.441Z,27.19
2022-08-12T15:40:31.784Z,27.23
2022-08-12T15:43:08.301Z,27.23
2022-08-12T15:45:43.491Z,27.23
2022-08-12T15:48:20.475Z,27.24
2022-08-12T15:50:47.591Z,27.14
2022-08-12T15:53:39.741Z,27.13
2022-08-12T15:56:12.666Z,27.16
2022-08-12T15:58:43.910Z,27.02
2022-08-12T16:01:15.120Z,26.91
2022-08-12T16:03:59.268Z,26.86
2022-08-12T16:06:49.611Z,26.87
2022-08-12T16:09:21.579Z,26.85
2022-08-12T16:11:59.201Z,26.92
2022-08-12T16:14:28.290Z,27.34
2022-08-12T16:16:55.419Z,27.48
2022-08-12T16:20:04.068Z,27.31
2022-08-12T16:22:11.353Z,27.03
2022-08-12T16:24:42.405Z,26.91
2022-08-12T16:27:09.672Z,26.79
2022-08-12T16:29:53.493Z,26.69
2022-08-12T16:32:24.442Z,26.64
2022-08-12T16:34:59.883Z,26.66
2022-08-12T16:38:25.643Z,26.67
2022-08-12T16:40:21.743Z,26.57
2022-08-12T16:42:54.426Z,26.53
2022-08-12T16:45:32.208Z,26.57
2022-08-12T16:48:34.062Z,26.47
2022-08-12T16:51:09.403Z,26.38
2022-08-12T16:53:44.548Z,26.32
2022-08-12T16:56:14.784Z,26.25
2022-08-12T16:58:42.323Z,26.15
2022-08-12T17:01:14.035Z,26.17
2022-08-12T17:03:52.016Z,26.18
2022-08-12T17:06:22.456Z,26.07
2022-08-12T17:09:02.332Z,26.04
2022-08-12T17:11:33.431Z,25.90
2022-08-12T17:14:01.305Z,25.74
2022-08-12T17:16:29.956Z,25.80
2022-08-12T17:19:03.132Z,25.71
2022-08-12T17:21:41.178Z,25.72
2022-08-12T17:24:21.384Z,25.71
2022-08-12T17:26:50.283Z,25.73
2022-08-12T17:29:32.092Z,25.61
2022-08-12T17:32:08.869Z,25.64
2022-08-12T17:34:54.488Z,25.47
2022-08-12T17:37:21.711Z,25.43
2022-08-12T17:40:15.173Z,25.36
2022-08-12T17:42:35.724Z,25.51
2022-08-12T17:45:17.959Z,25.48
2022-08-12T17:48:01.574Z,25.46
2022-08-12T17:50:32.669Z,25.44
2022-08-12T17:53:03.106Z,25.29
2022-08-12T17:55:40.696Z,25.26
2022-08-12T17:58:13.742Z,24.92
2022-08-12T18:00:45.472Z,24.90
2022-08-12T18:04:04.940Z,24.68
2022-08-12T18:06:08.408Z,24.41
2022-08-12T18:08:35.648Z,24.22
2022-08-12T18:11:21.388Z,24.14
2022-08-12T18:14:07.220Z,23.90
2022-08-12T18:16:35.044Z,23.84
2022-08-12T18:19:02.294Z,23.72
2022-08-12T18:22:01.831Z,23.73
2022-08-12T18:24:22.263Z,23.55
2022-08-12T18:26:56.646Z,23.43
2022-08-12T18:29:41.897Z,23.31
2022-08-12T18:32:44.052Z,23.18
2022-08-12T18:34:58.314Z,23.11
2022-08-12T18:37:41.457Z,23.09
2022-08-12T18:40:27.854Z,23.01
2022-08-12T18:42:54.743Z,22.78
2022-08-12T18:45:31.666Z,22.70
2022-08-12T18:48:16.618Z,22.49
2022-08-12T18:50:49.504Z,22.49
2022-08-12T18:54:04.842Z,22.45
2022-08-12T18:56:05.022Z,22.24
2022-08-12T18:58:59.610Z,22.04
2022-08-12T19:02:11.734Z,22.01
2022-08-12T19:04:15.618Z,21.79
2022-08-12T19:06:46.462Z,21.76
2022-08-12T19:09:15.128Z,21.60
2022-08-12T19:12:00.984Z,21.40
2022-08-12T19:14:28.251Z,21.42
2022-08-12T19:16:57.776Z,21.25
2022-08-12T19:19:25.059Z,21.14
2022-08-12T19:21:56.579Z,20.91
2022-08-12T19:24:46.683Z,20.84
2022-08-12T19:27:15.479Z,20.82
2022-08-12T19:29:44.462Z,20.64
2022-08-12T19:32:14.057Z,20.67
2022-08-12T19:36:07.419Z,20.76
2022-08-12T19:38:02.756Z,20.39
2022-08-12T19:40:31.376Z,20.22
2022-08-12T19:43:18.905Z,20.19
2022-08-12T19:45:51.385Z,20.10
2022-08-12T19:48:20.189Z,20.02
2022-08-12T19:50:50.506Z,19.94
2022-08-12T19:53:20.133Z,19.87
2022-08-12T19:55:52.717Z,19.80
2022-08-12T19:58:20.443Z,19.76
2022-08-12T20:00:53.389Z,19.58
2022-08-12T20:03:38.997Z,19.57
2022-08-12T20:06:15.853Z,19.40
2022-08-12T20:08:47.733Z,19.27
2022-08-12T20:12:09.218Z,19.12
2022-08-12T20:14:07.207Z,18.96
2022-08-12T20:16:57.239Z,19.07
2022-08-12T20:19:52.717Z,18.96
2022-08-12T20:22:14.483Z,18.89
2022-08-12T20:24:42.471Z,19.06
2022-08-12T20:27:29.422Z,18.94
2022-08-12T20:29:59.618Z,18.87
2022-08-12T20:32:29.714Z,18.76
2022-08-12T20:35:09.926Z,18.79
2022-08-12T20:38:06.754Z,18.76
2022-08-12T20:40:24.495Z,18.62
2022-08-12T20:42:53.717Z,18.58
2022-08-12T20:45:21.623Z,18.37
2022-08-12T20:48:01.956Z,18.24
2022-08-12T20:50:31.304Z,18.37
2022-08-12T20:53:02.807Z,18.36
2022-08-12T20:55:41.480Z,18.36
2022-08-12T20:58:09.906Z,18.46
2022-08-12T21:00:36.668Z,18.43
2022-08-12T21:03:24.597Z,18.38
2022-08-12T21:06:13.440Z,18.33
2022-08-12T21:08:41.549Z,18.15
2022-08-12T21:11:09.717Z,18.21
2022-08-12T21:13:39.139Z,18.25
2022-08-12T21:16:15.547Z,18.04
2022-08-12T21:19:02.429Z,17.97
2022-08-12T21:21:46.881Z,17.85
2022-08-12T21:24:17.889Z,18.03
2022-08-12T21:26:53.666Z,17.98
2022-08-12T21:29:21.601Z,17.86
2022-08-12T21:32:39.849Z,17.83
2022-08-12T21:34:36.251Z,17.70
2022-08-12T21:37:13.263Z,17.68
2022-08-12T21:39:56.450Z,17.71
2022-08-12T21:42:26.279Z,17.61
2022-08-12T21:45:47.215Z,17.54
2022-08-12T21:47:41.627Z,17.38
2022-08-12T21:50:09.305Z,17.40
2022-08-12T21:52:41.174Z,17.35
2022-08-12T21:55:18.861Z,17.17
2022-08-12T21:57:53.521Z,17.18
2022-08-12T22:00:33.243Z,17.20
2022-08-12T22:04:02.317Z,17.19
2022-08-12T22:06:31.462Z,17.15
2022-08-12T22:09:15.274Z,17.13
2022-08-12T22:11:43.902Z,17.22
2022-08-12T22:14:21.347Z,17.47
2022-08-12T22:16:51.376Z,17.57
2022-08-12T22:19:20.928Z,17.56
2022-08-12T22:21:53.346Z,17.38
2022-08-12T22:24:26.778Z,17.49
2022-08-12T22:27:08.220Z,17.36
2022-08-12T22:30:16.447Z,17.26
2022-08-12T22:32:51.033Z,17.17
2022-08-12T22:35:47.293Z,17.19
2022-08-12T22:38:21.198Z,17.33
2022-08-12T22:40:53.428Z,17.18
2022-08-12T22:43:59.106Z,17.01
2022-08-12T22:46:53.530Z,16.89
2022-08-12T22:49:22.390Z,16.67
2022-08-12T22:52:11.377Z,16.62
2022-08-12T22:54:46.491Z,16.62
2022-08-12T22:57:53.799Z,16.74
2022-08-12T23:00:27.443Z,16.55
2022-08-12T23:03:03.030Z,16.71
2022-08-12T23:05:36.748Z,16.49
2022-08-12T23:08:32.594Z,16.58
2022-08-12T23:11:00.959Z,16.41
2022-08-12T23:13:55.525Z,16.55
2022-08-12T23:16:30.903Z,16.53
2022-08-12T23:19:10.368Z,16.53
2022-08-12T23:22:04.026Z,16.62
2022-08-12T23:24:54.013Z,16.70
2022-08-12T23:27:50.311Z,16.44
2022-08-12T23:30:24.801Z,16.50
2022-08-12T23:33:00.042Z,16.50
2022-08-12T23:35:45.588Z,16.47
2022-08-12T23:38:30.256Z,16.37
2022-08-12T23:41:00.964Z,16.34
2022-08-12T23:43:39.052Z,16.41
2022-08-12T23:46:11.463Z,16.43
2022-08-12T23:48:40.100Z,16.47
2022-08-12T23:51:23.661Z,16.27
2022-08-12T23:54:02.620Z,16.12
2022-08-12T23:56:34.115Z,15.95
2022-08-12T23:59:04.594Z,16.03
